createdAt,value
2023-09-25T00:00:43.338Z,79.73
2023-09-25T00:01:43.034Z,79.77
2023-09-25T00:02:43.260Z,79.71
2023-09-25T00:03:43.391Z,79.63
2023-09-25T00:04:43.100Z,79.52
2023-09-25T00:05:43.217Z,79.44
2023-09-25T00:06:43.090Z,79.40
2023-09-25T00:07:42.957Z,79.36
2023-09-25T00:08:43.266Z,79.44
2023-09-25T00:09:42.950Z,79.51
2023-09-25T00:10:42.922Z,79.60
2023-09-25T00:11:43.275Z,79.62
2023-09-25T00:12:42.944Z,79.60
2023-09-25T00:13:42.898Z,79.65
2023-09-25T00:14:43.254Z,79.78
2023-09-25T00:15:42.969Z,79.88
2023-09-25T00:16:42.888Z,79.89
2023-09-25T00:17:43.017Z,79.91
2023-09-25T00:18:42.949Z,80.03
2023-09-25T00:19:42.827Z,80.05
2023-09-25T00:20:42.814Z,80.13
2023-09-25T00:21:42.896Z,80.09
2023-09-25T00:22:42.823Z,80.11
2023-09-25T00:23:43.218Z,80.17
2023-09-25T00:24:42.772Z,80.12
2023-09-25T00:25:42.776Z,80.16
2023-09-25T00:26:42.877Z,80.24
2023-09-25T00:27:42.831Z,80.27
2023-09-25T00:28:42.704Z,80.30
2023-09-25T00:29:42.715Z,80.52
2023-09-25T00:30:42.745Z,80.74
2023-09-25T00:31:42.772Z,80.73
2023-09-25T00:32:42.764Z,80.65
2023-09-25T00:33:42.752Z,80.65
2023-09-25T00:34:42.849Z,80.71
2023-09-25T00:35:42.833Z,80.67
2023-09-25T00:36:42.803Z,80.46
2023-09-25T00:37:42.820Z,80.30
2023-09-25T00:38:42.967Z,80.20
2023-09-25T00:39:42.944Z,80.20
2023-09-25T00:40:42.574Z,80.23
2023-09-25T00:41:42.623Z,80.30
2023-09-25T00:42:42.950Z,80.35
2023-09-25T00:43:42.551Z,80.18
2023-09-25T00:44:42.590Z,79.99
2023-09-25T00:45:42.585Z,79.96
2023-09-25T00:46:42.542Z,79.81
2023-09-25T00:47:42.908Z,79.79
2023-09-25T00:48:42.538Z,80.02
2023-09-25T00:49:43.150Z,80.07
2023-09-25T00:50:42.816Z,79.89
2023-09-25T00:51:42.481Z,80.06
2023-09-25T00:52:42.879Z,80.58
2023-09-25T00:53:42.777Z,81.10
2023-09-25T00:54:43.199Z,81.38
2023-09-25T00:55:42.876Z,81.72
2023-09-25T00:56:43.289Z,81.71
2023-09-25T00:57:43.350Z,81.81
2023-09-25T00:58:42.391Z,81.91
2023-09-25T00:59:42.656Z,81.89
2023-09-25T01:00:42.935Z,82.03
2023-09-25T01:01:42.645Z,82.16
2023-09-25T01:02:42.455Z,82.23
2023-09-25T01:03:42.348Z,82.30
2023-09-25T01:04:42.316Z,82.33
2023-09-25T01:05:42.323Z,82.53
2023-09-25T01:06:42.303Z,82.73
2023-09-25T01:07:42.284Z,82.79
2023-09-25T01:08:42.337Z,82.75
2023-09-25T01:09:42.267Z,82.80
2023-09-25T01:10:42.253Z,82.87
2023-09-25T01:11:42.226Z,82.65
2023-09-25T01:12:42.273Z,82.61
2023-09-25T01:13:42.189Z,82.62
2023-09-25T01:14:42.221Z,82.89
2023-09-25T01:15:42.386Z,83.02
2023-09-25T01:16:42.238Z,83.13
2023-09-25T01:17:42.162Z,83.17
2023-09-25T01:18:42.343Z,83.31
2023-09-25T01:19:42.130Z,83.49
2023-09-25T01:20:42.142Z,83.61
2023-09-25T01:21:42.170Z,83.77
2023-09-25T01:22:42.174Z,83.85
2023-09-25T01:23:42.082Z,83.89
2023-09-25T01:24:42.291Z,84.30
2023-09-25T01:25:42.070Z,84.45
2023-09-25T01:26:42.068Z,84.59
2023-09-25T01:27:42.084Z,84.90
2023-09-25T01:28:42.048Z,84.95
2023-09-25T01:29:42.033Z,84.98
2023-09-25T01:30:42.363Z,84.86
2023-09-25T01:31:41.991Z,84.74
2023-09-25T01:32:42.016Z,84.74
2023-09-25T01:33:42.101Z,84.78
2023-09-25T01:34:42.360Z,84.84
2023-09-25T01:35:41.965Z,84.94
2023-09-25T01:36:42.133Z,84.85
2023-09-25T01:37:41.918Z,84.70
2023-09-25T01:38:42.341Z,84.72
2023-09-25T01:39:42.371Z,84.67
2023-09-25T01:40:41.917Z,84.73
2023-09-25T01:41:41.862Z,84.78
2023-09-25T01:42:42.385Z,84.73
2023-09-25T01:43:42.329Z,84.72
2023-09-25T01:44:41.853Z,84.72
2023-09-25T01:45:41.885Z,84.78
2023-09-25T01:46:42.370Z,84.81
2023-09-25T01:47:41.825Z,85.04
2023-09-25T01:48:42.199Z,85.24
2023-09-25T01:49:41.841Z,85.42
2023-09-25T01:50:41.808Z,85.49
2023-09-25T01:51:42.159Z,85.45
2023-09-25T01:52:41.791Z,85.44
2023-09-25T01:53:41.756Z,85.49
2023-09-25T01:54:42.402Z,85.58
2023-09-25T01:55:41.740Z,85.66
2023-09-25T01:56:41.723Z,85.71
2023-09-25T01:57:41.878Z,85.76
2023-09-25T01:58:41.702Z,85.83
2023-09-25T01:59:41.668Z,85.90
2023-09-25T02:00:41.737Z,85.86
2023-09-25T02:01:41.671Z,85.73
2023-09-25T02:02:41.936Z,85.75
2023-09-25T02:03:41.939Z,85.79
2023-09-25T02:04:42.171Z,85.77
2023-09-25T02:05:41.783Z,85.81
2023-09-25T02:06:41.835Z,85.83
2023-09-25T02:07:42.354Z,85.81
2023-09-25T02:08:41.586Z,85.78
2023-09-25T02:09:41.589Z,85.76
2023-09-25T02:10:41.861Z,85.66
2023-09-25T02:11:41.530Z,85.64
2023-09-25T02:12:41.601Z,85.70
2023-09-25T02:13:41.608Z,85.75
2023-09-25T02:14:41.511Z,85.73
2023-09-25T02:15:41.720Z,85.73
2023-09-25T02:16:41.584Z,85.77
2023-09-25T02:17:41.496Z,85.70
2023-09-25T02:18:41.777Z,85.68
2023-09-25T02:19:41.443Z,85.69
2023-09-25T02:20:41.510Z,85.75
2023-09-25T02:21:41.430Z,85.78
2023-09-25T02:22:41.842Z,85.62
2023-09-25T02:23:41.394Z,85.53
2023-09-25T02:24:41.434Z,85.37
2023-09-25T02:25:41.390Z,85.37
2023-09-25T02:26:41.379Z,85.38
2023-09-25T02:27:41.400Z,85.40
2023-09-25T02:28:41.387Z,85.33
2023-09-25T02:29:41.330Z,85.36
2023-09-25T02:30:41.403Z,85.42
2023-09-25T02:31:41.374Z,85.48
2023-09-25T02:32:41.362Z,85.50
2023-09-25T02:33:41.331Z,85.49
2023-09-25T02:34:41.795Z,85.57
2023-09-25T02:35:41.269Z,85.65
2023-09-25T02:36:41.313Z,85.67
2023-09-25T02:37:41.243Z,85.74
2023-09-25T02:38:41.299Z,85.78
2023-09-25T02:39:41.231Z,85.76
2023-09-25T02:40:41.257Z,85.78
2023-09-25T02:41:41.198Z,85.82
2023-09-25T02:42:41.222Z,85.91
2023-09-25T02:43:41.191Z,85.99
2023-09-25T02:44:41.240Z,86.04
2023-09-25T02:45:41.230Z,86.24
2023-09-25T02:46:41.281Z,86.29
2023-09-25T02:47:41.128Z,86.23
2023-09-25T02:48:41.198Z,86.21
2023-09-25T02:49:41.299Z,86.20
2023-09-25T02:50:41.115Z,86.22
2023-09-25T02:51:41.153Z,86.28
2023-09-25T02:52:41.334Z,86.32
2023-09-25T02:53:41.054Z,86.36
2023-09-25T02:54:41.123Z,86.53
2023-09-25T02:55:41.401Z,86.77
2023-09-25T02:56:41.052Z,86.94
2023-09-25T02:57:41.165Z,86.96
2023-09-25T02:58:41.521Z,87.07
2023-09-25T02:59:41.399Z,87.11
2023-09-25T03:00:41.025Z,87.16
2023-09-25T03:01:40.996Z,87.16
2023-09-25T03:02:41.150Z,87.13
2023-09-25T03:03:40.960Z,87.08
2023-09-25T03:04:41.156Z,87.08
2023-09-25T03:05:40.977Z,87.01
2023-09-25T03:06:40.991Z,86.93
2023-09-25T03:07:40.910Z,86.81
2023-09-25T03:08:40.916Z,86.67
2023-09-25T03:09:40.935Z,86.60
2023-09-25T03:10:41.186Z,86.51
2023-09-25T03:11:40.862Z,86.41
2023-09-25T03:12:40.856Z,86.27
2023-09-25T03:13:40.839Z,86.23
2023-09-25T03:14:41.303Z,86.23
2023-09-25T03:15:40.886Z,86.21
2023-09-25T03:16:40.820Z,86.29
2023-09-25T03:17:40.803Z,86.38
2023-09-25T03:18:40.825Z,86.43
2023-09-25T03:19:40.762Z,86.50
2023-09-25T03:20:40.767Z,86.54
2023-09-25T03:21:40.779Z,86.67
2023-09-25T03:22:41.499Z,86.78
2023-09-25T03:23:40.707Z,86.86
2023-09-25T03:24:41.543Z,86.96
2023-09-25T03:25:40.719Z,87.14
2023-09-25T03:26:40.690Z,87.17
2023-09-25T03:27:40.828Z,87.26
2023-09-25T03:28:40.690Z,87.35
2023-09-25T03:29:40.652Z,87.39
2023-09-25T03:30:41.481Z,87.38
2023-09-25T03:31:40.714Z,87.41
2023-09-25T03:32:41.135Z,87.46
2023-09-25T03:33:40.638Z,87.35
2023-09-25T03:34:41.147Z,87.38
2023-09-25T03:35:40.575Z,87.44
2023-09-25T03:36:40.662Z,87.27
2023-09-25T03:37:40.572Z,87.30
2023-09-25T03:38:40.899Z,87.29
2023-09-25T03:39:40.716Z,87.30
2023-09-25T03:40:41.450Z,87.24
2023-09-25T03:41:40.514Z,87.22
2023-09-25T03:42:40.633Z,87.22
2023-09-25T03:43:40.487Z,87.18
2023-09-25T03:44:40.500Z,87.14
2023-09-25T03:45:40.510Z,87.16
2023-09-25T03:46:40.874Z,87.25
2023-09-25T03:47:40.495Z,87.26
2023-09-25T03:48:40.526Z,87.25
2023-09-25T03:49:40.821Z,87.21
2023-09-25T03:50:40.459Z,87.14
2023-09-25T03:51:40.517Z,87.03
2023-09-25T03:52:40.413Z,87.02
2023-09-25T03:53:40.398Z,87.00
2023-09-25T03:54:40.521Z,86.95
2023-09-25T03:55:40.338Z,86.86
2023-09-25T03:56:40.471Z,86.80
2023-09-25T03:57:40.373Z,86.78
2023-09-25T03:58:40.313Z,86.73
2023-09-25T03:59:40.455Z,86.66
2023-09-25T04:00:40.393Z,86.66
2023-09-25T04:01:40.289Z,86.65
2023-09-25T04:02:40.592Z,86.61
2023-09-25T04:03:40.374Z,86.58
2023-09-25T04:04:40.698Z,86.52
2023-09-25T04:05:40.250Z,86.31
2023-09-25T04:06:40.256Z,86.12
2023-09-25T04:07:40.218Z,85.97
2023-09-25T04:08:40.228Z,85.82
2023-09-25T04:09:40.497Z,85.71
2023-09-25T04:10:40.204Z,85.81
2023-09-25T04:11:40.149Z,85.75
2023-09-25T04:12:40.206Z,85.68
2023-09-25T04:13:40.142Z,85.55
2023-09-25T04:14:40.490Z,85.65
2023-09-25T04:15:40.119Z,85.87
2023-09-25T04:16:40.180Z,85.81
2023-09-25T04:17:40.734Z,85.67
2023-09-25T04:18:40.636Z,85.57
2023-09-25T04:19:40.217Z,85.52
2023-09-25T04:20:40.307Z,85.52
2023-09-25T04:21:40.074Z,85.49
2023-09-25T04:22:40.487Z,85.48
2023-09-25T04:23:40.487Z,85.44
2023-09-25T04:24:40.065Z,85.40
2023-09-25T04:25:40.186Z,85.41
2023-09-25T04:26:40.490Z,85.46
2023-09-25T04:27:40.619Z,85.48
2023-09-25T04:28:40.007Z,85.52
2023-09-25T04:29:39.981Z,85.48
2023-09-25T04:30:40.676Z,85.49
2023-09-25T04:31:39.995Z,85.49
2023-09-25T04:32:40.391Z,85.44
2023-09-25T04:33:39.968Z,85.41
2023-09-25T04:34:40.441Z,85.37
2023-09-25T04:35:39.872Z,85.41
2023-09-25T04:36:40.579Z,85.42
2023-09-25T04:37:39.866Z,85.40
2023-09-25T04:38:40.504Z,85.46
2023-09-25T04:39:39.880Z,85.72
2023-09-25T04:40:40.928Z,85.75
2023-09-25T04:41:40.508Z,85.72
2023-09-25T04:42:40.562Z,85.65
2023-09-25T04:43:39.823Z,85.65
2023-09-25T04:44:39.816Z,85.65
2023-09-25T04:45:39.866Z,85.73
2023-09-25T04:46:39.903Z,85.79
2023-09-25T04:47:39.754Z,85.80
2023-09-25T04:48:39.909Z,85.81
2023-09-25T04:49:39.785Z,85.85
2023-09-25T04:50:40.000Z,85.94
2023-09-25T04:51:39.865Z,85.98
2023-09-25T04:52:40.060Z,86.00
2023-09-25T04:53:39.776Z,86.05
2023-09-25T04:54:39.812Z,86.19
2023-09-25T04:55:39.677Z,86.22
2023-09-25T04:56:39.747Z,86.59
2023-09-25T04:57:40.336Z,86.74
2023-09-25T04:58:40.284Z,86.86
2023-09-25T04:59:39.815Z,86.90
2023-09-25T05:00:40.327Z,86.90
2023-09-25T05:01:39.646Z,86.87
2023-09-25T05:02:40.350Z,86.89
2023-09-25T05:03:41.027Z,86.86
2023-09-25T05:04:39.558Z,86.88
2023-09-25T05:05:39.548Z,86.86
2023-09-25T05:06:39.650Z,86.89
2023-09-25T05:07:39.507Z,86.92
2023-09-25T05:08:39.530Z,87.00
2023-09-25T05:09:39.510Z,87.05
2023-09-25T05:10:39.496Z,87.11
2023-09-25T05:11:39.498Z,87.12
2023-09-25T05:12:39.540Z,87.22
2023-09-25T05:13:39.464Z,87.32
2023-09-25T05:14:39.451Z,87.33
2023-09-25T05:15:39.481Z,87.39
2023-09-25T05:16:39.447Z,87.41
2023-09-25T05:17:39.502Z,87.40
2023-09-25T05:18:39.461Z,87.40
2023-09-25T05:19:39.432Z,87.42
2023-09-25T05:20:39.377Z,87.46
2023-09-25T05:21:39.429Z,87.56
2023-09-25T05:22:39.360Z,87.55
2023-09-25T05:23:39.349Z,87.55
2023-09-25T05:24:39.358Z,87.56
2023-09-25T05:25:39.318Z,87.57
2023-09-25T05:26:39.319Z,87.57
2023-09-25T05:27:39.396Z,87.58
2023-09-25T05:28:39.285Z,87.59
2023-09-25T05:29:39.261Z,87.62
2023-09-25T05:30:39.615Z,87.68
2023-09-25T05:31:39.281Z,87.68
2023-09-25T05:32:39.265Z,87.77
2023-09-25T05:33:39.295Z,87.85
2023-09-25T05:34:39.206Z,87.87
2023-09-25T05:35:39.217Z,87.93
2023-09-25T05:36:39.263Z,87.94
2023-09-25T05:37:39.209Z,87.91
2023-09-25T05:38:39.293Z,87.89
2023-09-25T05:39:39.210Z,88.03
2023-09-25T05:40:39.127Z,88.13
2023-09-25T05:41:39.166Z,88.14
2023-09-25T05:42:39.147Z,88.20
2023-09-25T05:43:39.105Z,88.24
2023-09-25T05:44:39.105Z,88.33
2023-09-25T05:45:39.113Z,88.33
2023-09-25T05:46:39.114Z,88.34
2023-09-25T05:47:39.077Z,88.37
2023-09-25T05:48:39.580Z,88.46
2023-09-25T05:49:39.073Z,88.43
2023-09-25T05:50:39.009Z,88.39
2023-09-25T05:51:39.097Z,88.36
2023-09-25T05:52:38.989Z,88.35
2023-09-25T05:53:39.000Z,88.30
2023-09-25T05:54:39.027Z,88.29
2023-09-25T05:55:38.978Z,88.27
2023-09-25T05:56:38.942Z,88.22
2023-09-25T05:57:39.014Z,88.19
2023-09-25T05:58:38.925Z,88.16
2023-09-25T05:59:38.962Z,88.02
2023-09-25T06:00:39.966Z,87.93
2023-09-25T06:01:38.962Z,87.80
2023-09-25T06:02:39.620Z,87.78
2023-09-25T06:03:38.977Z,87.73
2023-09-25T06:04:38.975Z,87.62
2023-09-25T06:05:38.865Z,87.58
2023-09-25T06:06:38.867Z,87.49
2023-09-25T06:07:38.838Z,87.50
2023-09-25T06:08:38.810Z,87.43
2023-09-25T06:09:38.861Z,87.28
2023-09-25T06:10:38.817Z,87.15
2023-09-25T06:11:38.790Z,87.16
2023-09-25T06:12:38.822Z,87.09
2023-09-25T06:13:38.788Z,86.98
2023-09-25T06:14:38.737Z,86.92
2023-09-25T06:15:38.969Z,86.87
2023-09-25T06:16:38.784Z,86.77
2023-09-25T06:17:38.791Z,86.66
2023-09-25T06:18:38.713Z,86.58
2023-09-25T06:19:38.716Z,86.45
2023-09-25T06:20:38.691Z,86.31
2023-09-25T06:21:38.710Z,86.25
2023-09-25T06:22:39.597Z,86.12
2023-09-25T06:23:38.662Z,86.04
2023-09-25T06:24:38.701Z,85.95
2023-09-25T06:25:38.657Z,85.90
2023-09-25T06:26:38.649Z,85.83
2023-09-25T06:27:38.656Z,85.83
2023-09-25T06:28:38.573Z,85.83
2023-09-25T06:29:38.613Z,85.83
2023-09-25T06:30:38.609Z,85.86
2023-09-25T06:31:53.785Z,85.83
2023-09-25T06:32:39.627Z,85.82
2023-09-25T06:33:38.640Z,85.85
2023-09-25T06:34:38.628Z,85.82
2023-09-25T06:35:38.563Z,85.76
2023-09-25T06:36:38.582Z,85.73
2023-09-25T06:37:40.121Z,85.65
2023-09-25T06:38:38.462Z,85.65
2023-09-25T06:39:38.493Z,85.76
2023-09-25T06:40:38.433Z,85.74
2023-09-25T06:41:38.490Z,85.68
2023-09-25T06:42:38.462Z,85.65
2023-09-25T06:43:38.422Z,85.62
2023-09-25T06:44:38.377Z,85.56
2023-09-25T06:45:38.455Z,85.47
2023-09-25T06:46:38.409Z,85.33
2023-09-25T06:47:38.806Z,85.30
2023-09-25T06:48:38.423Z,84.97
2023-09-25T06:49:38.338Z,84.89
2023-09-25T06:50:38.315Z,84.57
2023-09-25T06:51:38.521Z,84.25
2023-09-25T06:52:38.293Z,83.62
2023-09-25T06:53:38.315Z,82.97
2023-09-25T06:54:38.326Z,82.47
2023-09-25T06:55:38.276Z,82.29
2023-09-25T06:56:38.246Z,81.85
2023-09-25T06:57:38.286Z,81.57
2023-09-25T06:58:38.233Z,81.24
2023-09-25T06:59:38.240Z,80.48
2023-09-25T07:00:50.714Z,80.28
2023-09-25T07:01:39.297Z,80.06
2023-09-25T07:02:38.181Z,79.54
2023-09-25T07:03:38.285Z,78.72
2023-09-25T07:04:38.286Z,78.16
2023-09-25T07:05:38.243Z,77.88
2023-09-25T07:06:38.183Z,77.40
2023-09-25T07:07:38.123Z,76.70
2023-09-25T07:08:38.138Z,75.88
2023-09-25T07:09:38.187Z,75.19
2023-09-25T07:10:38.110Z,74.05
2023-09-25T07:11:38.104Z,73.38
2023-09-25T07:12:38.151Z,72.97
2023-09-25T07:13:38.084Z,72.37
2023-09-25T07:14:38.058Z,71.54
2023-09-25T07:15:38.126Z,70.82
2023-09-25T07:16:38.072Z,70.24
2023-09-25T07:17:38.112Z,69.36
2023-09-25T07:18:38.025Z,68.55
2023-09-25T07:19:37.999Z,67.86
2023-09-25T07:20:38.007Z,67.49
2023-09-25T07:21:38.064Z,67.17
2023-09-25T07:22:37.981Z,66.92
2023-09-25T07:23:38.161Z,66.26
2023-09-25T07:24:37.969Z,65.80
2023-09-25T07:25:37.938Z,65.25
2023-09-25T07:26:37.897Z,64.70
2023-09-25T07:27:38.027Z,64.46
2023-09-25T07:28:38.385Z,64.35
2023-09-25T07:29:41.854Z,64.33
2023-09-25T07:30:37.919Z,64.11
2023-09-25T07:31:37.905Z,63.62
2023-09-25T07:32:37.900Z,63.31
2023-09-25T07:33:37.887Z,63.62
2023-09-25T07:34:37.815Z,63.88
2023-09-25T07:35:37.818Z,63.66
2023-09-25T07:36:38.575Z,63.19
2023-09-25T07:37:37.839Z,63.59
2023-09-25T07:38:37.786Z,63.72
2023-09-25T07:39:37.858Z,63.66
2023-09-25T07:40:37.760Z,63.99
2023-09-25T07:41:37.792Z,63.70
2023-09-25T07:42:37.763Z,63.65
2023-09-25T07:43:51.111Z,63.54
2023-09-25T07:44:38.782Z,63.28
2023-09-25T07:45:37.744Z,63.72
2023-09-25T07:46:37.765Z,63.82
2023-09-25T07:47:37.723Z,63.82
2023-09-25T07:48:37.761Z,63.77
2023-09-25T07:49:37.685Z,63.72
2023-09-25T07:50:37.635Z,64.13
2023-09-25T07:51:37.689Z,64.44
2023-09-25T07:52:37.623Z,64.80
2023-09-25T07:53:37.626Z,64.74
2023-09-25T07:54:37.618Z,65.48
2023-09-25T07:55:37.603Z,66.04
2023-09-25T07:56:37.572Z,65.34
2023-09-25T07:57:37.638Z,64.99
2023-09-25T07:58:37.574Z,65.13
2023-09-25T07:59:37.563Z,64.57
2023-09-25T08:00:37.576Z,64.21
2023-09-25T08:01:37.568Z,63.49
2023-09-25T08:02:37.583Z,62.94
2023-09-25T08:03:37.606Z,63.21
2023-09-25T08:04:37.547Z,62.83
2023-09-25T08:05:37.735Z,63.16
2023-09-25T08:06:37.474Z,62.62
2023-09-25T08:07:37.466Z,62.38
2023-09-25T08:08:37.480Z,61.77
2023-09-25T08:09:37.603Z,61.36
2023-09-25T08:10:37.438Z,61.19
2023-09-25T08:11:37.440Z,61.43
2023-09-25T08:12:37.404Z,61.18
2023-09-25T08:13:37.417Z,60.65
2023-09-25T08:14:37.375Z,60.22
2023-09-25T08:15:37.425Z,59.96
2023-09-25T08:16:37.383Z,59.95
2023-09-25T08:17:37.388Z,60.31
2023-09-25T08:18:37.370Z,60.22
2023-09-25T08:19:37.454Z,60.03
2023-09-25T08:20:37.385Z,59.51
2023-09-25T08:21:37.352Z,60.17
2023-09-25T08:22:37.280Z,60.77
2023-09-25T08:23:37.282Z,60.65
2023-09-25T08:24:37.289Z,60.64
2023-09-25T08:25:37.300Z,60.82
2023-09-25T08:26:37.240Z,59.98
2023-09-25T08:27:37.311Z,60.65
2023-09-25T08:28:37.235Z,60.09
2023-09-25T08:29:37.224Z,59.97
2023-09-25T08:30:37.319Z,60.90
2023-09-25T08:31:37.285Z,61.31
2023-09-25T08:32:37.251Z,60.96
2023-09-25T08:33:37.261Z,60.29
2023-09-25T08:34:37.155Z,61.07
2023-09-25T08:35:37.159Z,60.74
2023-09-25T08:36:37.190Z,60.61
2023-09-25T08:37:37.127Z,61.42
2023-09-25T08:38:37.100Z,61.76
2023-09-25T08:39:37.216Z,61.30
2023-09-25T08:40:37.097Z,62.27
2023-09-25T08:41:37.095Z,62.40
2023-09-25T08:42:37.781Z,62.43
2023-09-25T08:43:37.077Z,61.90
2023-09-25T08:44:37.029Z,62.14
2023-09-25T08:45:37.244Z,62.07
2023-09-25T08:46:37.073Z,61.76
2023-09-25T08:47:37.039Z,62.20
2023-09-25T08:48:37.033Z,62.04
2023-09-25T08:49:37.727Z,62.47
2023-09-25T08:50:36.971Z,62.88
2023-09-25T08:51:37.081Z,63.58
2023-09-25T08:52:37.158Z,63.21
2023-09-25T08:53:36.971Z,62.98
2023-09-25T08:54:36.972Z,62.81
2023-09-25T08:55:36.951Z,63.34
2023-09-25T08:56:37.741Z,63.79
2023-09-25T08:57:37.790Z,62.94
2023-09-25T08:58:37.662Z,62.78
2023-09-25T08:59:37.371Z,62.83
2023-09-25T09:00:36.889Z,62.61
2023-09-25T09:01:36.959Z,62.97
2023-09-25T09:02:36.878Z,62.53
2023-09-25T09:03:37.177Z,62.62
2023-09-25T09:04:36.922Z,62.37
2023-09-25T09:05:37.280Z,62.25
2023-09-25T09:06:37.067Z,62.91
2023-09-25T09:07:36.775Z,62.63
2023-09-25T09:08:36.760Z,62.06
2023-09-25T09:09:36.820Z,62.69
2023-09-25T09:10:36.796Z,62.82
2023-09-25T09:11:37.009Z,62.00
2023-09-25T09:12:44.380Z,62.07
2023-09-25T09:13:37.722Z,61.30
2023-09-25T09:14:36.693Z,61.23
2023-09-25T09:15:36.717Z,61.11
2023-09-25T09:16:36.711Z,60.92
2023-09-25T09:17:36.960Z,61.19
2023-09-25T09:18:36.661Z,61.19
2023-09-25T09:19:36.671Z,60.85
2023-09-25T09:20:36.865Z,60.65
2023-09-25T09:21:36.757Z,60.51
2023-09-25T09:22:36.598Z,61.15
2023-09-25T09:23:36.620Z,60.39
2023-09-25T09:24:36.639Z,60.49
2023-09-25T09:25:36.588Z,61.01
2023-09-25T09:26:36.572Z,59.74
2023-09-25T09:27:36.588Z,59.55
2023-09-25T09:28:36.530Z,59.25
2023-09-25T09:29:36.532Z,59.26
2023-09-25T09:30:36.585Z,59.46
2023-09-25T09:31:36.520Z,59.82
2023-09-25T09:32:36.511Z,59.77
2023-09-25T09:33:36.571Z,59.21
2023-09-25T09:34:36.615Z,59.51
2023-09-25T09:35:36.484Z,59.91
2023-09-25T09:36:36.529Z,60.21
2023-09-25T09:37:36.442Z,60.24
2023-09-25T09:38:38.052Z,60.43
2023-09-25T09:39:36.544Z,60.80
2023-09-25T09:40:36.412Z,61.01
2023-09-25T09:41:36.382Z,61.68
2023-09-25T09:42:36.424Z,61.46
2023-09-25T09:43:36.377Z,61.12
2023-09-25T09:44:36.388Z,61.73
2023-09-25T09:45:36.454Z,60.98
2023-09-25T09:46:36.461Z,60.75
2023-09-25T09:47:36.877Z,61.51
2023-09-25T09:48:36.330Z,60.83
2023-09-25T09:49:36.321Z,60.22
2023-09-25T09:50:36.306Z,60.26
2023-09-25T09:51:36.347Z,59.81
2023-09-25T09:52:37.568Z,59.87
2023-09-25T09:53:36.280Z,59.28
2023-09-25T09:54:36.329Z,59.28
2023-09-25T09:55:36.244Z,59.37
2023-09-25T09:56:36.281Z,59.40
2023-09-25T09:57:36.473Z,59.60
2023-09-25T09:58:36.211Z,59.60
2023-09-25T09:59:36.373Z,60.08
2023-09-25T10:00:36.278Z,60.37
2023-09-25T10:01:36.327Z,59.16
2023-09-25T10:02:36.322Z,59.72
2023-09-25T10:03:36.473Z,59.55
2023-09-25T10:04:36.233Z,59.29
2023-09-25T10:05:36.872Z,59.40
2023-09-25T10:06:36.155Z,58.76
2023-09-25T10:07:36.707Z,58.28
2023-09-25T10:08:36.106Z,58.54
2023-09-25T10:09:36.126Z,58.62
2023-09-25T10:10:36.062Z,58.37
2023-09-25T10:11:36.056Z,58.31
2023-09-25T10:12:36.066Z,57.53
2023-09-25T10:13:36.014Z,58.10
2023-09-25T10:14:36.010Z,58.12
2023-09-25T10:15:36.983Z,58.39
2023-09-25T10:16:36.068Z,58.75
2023-09-25T10:17:36.344Z,58.22
2023-09-25T10:18:36.014Z,58.45
2023-09-25T10:19:35.972Z,57.96
2023-09-25T10:20:35.957Z,58.12
2023-09-25T10:21:35.987Z,58.21
2023-09-25T10:22:35.926Z,58.18
2023-09-25T10:23:35.920Z,58.73
2023-09-25T10:24:35.952Z,58.00
2023-09-25T10:25:36.803Z,58.03
2023-09-25T10:26:35.900Z,57.76
2023-09-25T10:27:36.612Z,58.22
2023-09-25T10:28:35.856Z,58.81
2023-09-25T10:29:36.614Z,59.14
2023-09-25T10:30:35.882Z,58.25
2023-09-25T10:31:36.804Z,58.48
2023-09-25T10:32:35.879Z,58.37
2023-09-25T10:33:35.876Z,58.07
2023-09-25T10:34:35.869Z,58.53
2023-09-25T10:35:35.780Z,58.54
2023-09-25T10:36:35.837Z,58.11
2023-09-25T10:37:35.919Z,58.16
2023-09-25T10:38:35.800Z,58.43
2023-09-25T10:39:35.856Z,58.61
2023-09-25T10:40:35.818Z,58.78
2023-09-25T10:41:35.818Z,58.44
2023-09-25T10:42:35.731Z,57.82
2023-09-25T10:43:35.671Z,57.78
2023-09-25T10:44:35.699Z,58.69
2023-09-25T10:45:35.772Z,58.38
2023-09-25T10:46:35.706Z,58.68
2023-09-25T10:47:35.687Z,59.23
2023-09-25T10:48:35.683Z,59.18
2023-09-25T10:49:35.635Z,59.21
2023-09-25T10:50:35.617Z,58.58
2023-09-25T10:51:35.623Z,58.01
2023-09-25T10:52:37.042Z,57.91
2023-09-25T10:53:35.566Z,58.53
2023-09-25T10:54:35.650Z,59.21
2023-09-25T10:55:35.531Z,59.57
2023-09-25T10:56:35.538Z,59.45
2023-09-25T10:57:35.553Z,58.91
2023-09-25T10:58:35.522Z,58.68
2023-09-25T10:59:35.522Z,58.38
2023-09-25T11:00:35.550Z,58.50
2023-09-25T11:01:35.514Z,59.11
2023-09-25T11:02:35.459Z,59.48
2023-09-25T11:03:35.923Z,59.67
2023-09-25T11:04:35.655Z,59.66
2023-09-25T11:05:35.427Z,59.40
2023-09-25T11:06:35.446Z,59.30
2023-09-25T11:07:35.416Z,59.35
2023-09-25T11:08:35.398Z,58.89
2023-09-25T11:09:35.454Z,58.78
2023-09-25T11:10:35.431Z,58.31
2023-09-25T11:11:35.529Z,58.16
2023-09-25T11:12:35.378Z,58.40
2023-09-25T11:13:35.395Z,58.72
2023-09-25T11:14:35.335Z,58.88
2023-09-25T11:15:35.355Z,58.68
2023-09-25T11:16:35.353Z,58.44
2023-09-25T11:17:35.302Z,58.11
2023-09-25T11:18:35.392Z,58.52
2023-09-25T11:19:35.286Z,58.03
2023-09-25T11:20:35.264Z,58.29
2023-09-25T11:21:35.334Z,57.93
2023-09-25T11:22:35.262Z,57.36
2023-09-25T11:23:35.245Z,58.14
2023-09-25T11:24:35.239Z,57.57
2023-09-25T11:25:35.192Z,56.91
2023-09-25T11:26:35.211Z,56.95
2023-09-25T11:27:35.259Z,57.17
2023-09-25T11:28:35.184Z,57.51
2023-09-25T11:29:35.872Z,57.73
2023-09-25T11:30:35.890Z,58.01
2023-09-25T11:31:50.092Z,57.20
2023-09-25T11:32:36.177Z,57.45
2023-09-25T11:33:36.110Z,57.74
2023-09-25T11:34:35.163Z,58.40
2023-09-25T11:35:35.114Z,58.45
2023-09-25T11:36:35.139Z,58.11
2023-09-25T11:37:35.050Z,57.69
2023-09-25T11:38:35.069Z,57.97
2023-09-25T11:39:35.179Z,58.47
2023-09-25T11:40:35.031Z,57.90
2023-09-25T11:41:35.008Z,57.55
2023-09-25T11:42:35.419Z,57.30
2023-09-25T11:43:35.347Z,56.94
2023-09-25T11:44:34.985Z,56.35
2023-09-25T11:45:35.409Z,56.40
2023-09-25T11:46:35.002Z,56.85
2023-09-25T11:47:34.995Z,56.64
2023-09-25T11:48:35.503Z,56.89
2023-09-25T11:49:35.493Z,56.67
2023-09-25T11:50:35.532Z,56.59
2023-09-25T11:51:35.571Z,55.82
2023-09-25T11:52:34.927Z,55.35
2023-09-25T11:53:34.984Z,55.26
2023-09-25T11:54:34.935Z,55.37
2023-09-25T11:55:34.871Z,55.22
2023-09-25T11:56:34.904Z,55.73
2023-09-25T11:57:34.961Z,55.83
2023-09-25T11:58:34.851Z,55.69
2023-09-25T11:59:34.882Z,56.12
2023-09-25T12:00:34.859Z,54.80
2023-09-25T12:01:34.927Z,54.30
2023-09-25T12:02:34.785Z,54.01
2023-09-25T12:03:34.833Z,54.83
2023-09-25T12:04:34.881Z,54.89
2023-09-25T12:05:34.889Z,55.14
2023-09-25T12:06:35.905Z,55.21
2023-09-25T12:07:34.766Z,55.62
2023-09-25T12:08:34.900Z,55.15
2023-09-25T12:09:34.922Z,54.52
2023-09-25T12:10:34.697Z,52.96
2023-09-25T12:11:34.691Z,53.49
2023-09-25T12:12:34.730Z,53.89
2023-09-25T12:13:34.661Z,54.48
2023-09-25T12:14:34.684Z,54.54
2023-09-25T12:15:34.938Z,54.57
2023-09-25T12:16:34.788Z,53.23
2023-09-25T12:17:35.049Z,53.38
2023-09-25T12:18:35.119Z,54.32
2023-09-25T12:19:35.002Z,54.50
2023-09-25T12:20:34.616Z,54.41
2023-09-25T12:21:35.128Z,54.19
2023-09-25T12:22:34.563Z,54.77
2023-09-25T12:23:34.965Z,54.98
2023-09-25T12:24:34.612Z,55.39
2023-09-25T12:25:35.358Z,55.51
2023-09-25T12:26:34.514Z,55.60
2023-09-25T12:27:34.648Z,55.61
2023-09-25T12:28:34.615Z,55.16
2023-09-25T12:29:34.549Z,54.36
2023-09-25T12:30:34.641Z,54.93
2023-09-25T12:31:34.877Z,55.44
2023-09-25T12:32:34.481Z,55.37
2023-09-25T12:33:34.734Z,54.74
2023-09-25T12:34:34.451Z,55.33
2023-09-25T12:35:34.389Z,55.87
2023-09-25T12:36:34.435Z,54.78
2023-09-25T12:37:34.814Z,54.81
2023-09-25T12:38:34.407Z,54.99
2023-09-25T12:39:34.656Z,55.24
2023-09-25T12:40:34.937Z,54.86
2023-09-25T12:41:34.326Z,55.28
2023-09-25T12:42:51.279Z,55.73
2023-09-25T12:43:35.490Z,55.62
2023-09-25T12:44:34.297Z,54.98
2023-09-25T12:45:34.401Z,54.71
2023-09-25T12:46:34.295Z,54.88
2023-09-25T12:47:34.332Z,54.78
2023-09-25T12:48:34.415Z,55.70
2023-09-25T12:49:34.322Z,54.88
2023-09-25T12:50:34.878Z,54.65
2023-09-25T12:51:34.266Z,54.15
2023-09-25T12:52:34.232Z,54.33